Time;durP1;ratioP1;P1;durP2;ratioP2;P2;SDS_P1;SDS_P2;PMS_P1;PMS_P2;Temp;Humidity;BMP_temperature;BMP_pressure;BME280_temperature;BME280_humidity;BME280_pressure;Samples;Min_cycle;Max_cycle;Signal;HPM_P1;HPM_P2
2023/05/08 00:01:06;;;;;;;4.30;3.97;;;8.00;99.90;;;;;;5224601;28;20892;-54
2023/05/08 00:03:37;;;;;;;6.13;4.00;;;7.90;99.90;;;;;;5216201;28;20434;-53
2023/05/08 00:06:07;;;;;;;5.47;4.10;;;7.90;99.90;;;;;;5220655;28;20183;-52
2023/05/08 00:08:38;;;;;;;9.77;4.33;;;7.80;99.90;;;;;;5218275;28;20187;-56
2023/05/08 00:11:08;;;;;;;4.23;3.90;;;7.80;99.90;;;;;;5219581;28;20559;-53
2023/05/08 00:13:40;;;;;;;4.23;3.97;;;7.80;99.90;;;;;;5219429;28;21665;-52
2023/05/08 00:16:11;;;;;;;12.70;4.60;;;7.80;99.90;;;;;;5218640;28;20230;-55
2023/05/08 00:18:42;;;;;;;4.50;4.20;;;7.70;99.90;;;;;;5220748;28;20426;-52
2023/05/08 00:21:13;;;;;;;5.37;3.80;;;7.70;99.90;;;;;;5221408;28;21030;-54
2023/05/08 00:23:45;;;;;;;4.63;4.23;;;7.80;99.90;;;;;;5219555;28;20183;-54
2023/05/08 00:26:15;;;;;;;4.37;4.00;;;7.70;99.90;;;;;;5226614;28;20194;-54
2023/05/08 00:28:46;;;;;;;5.57;4.13;;;7.70;99.90;;;;;;5225050;28;20456;-55
2023/05/08 00:31:17;;;;;;;4.23;3.97;;;7.60;99.90;;;;;;5216516;28;20559;-52
2023/05/08 00:33:47;;;;;;;6.23;4.93;;;7.60;99.90;;;;;;5221182;28;20437;-55
2023/05/08 00:36:18;;;;;;;5.03;4.63;;;7.60;99.90;;;;;;5219846;28;20701;-52
2023/05/08 00:38:49;;;;;;;5.70;4.47;;;7.50;99.90;;;;;;5220425;28;20182;-53
2023/05/08 00:41:20;;;;;;;4.90;4.60;;;7.60;99.90;;;;;;5218413;28;20210;-53
2023/05/08 00:43:50;;;;;;;4.77;4.30;;;7.50;99.90;;;;;;5223022;28;20178;-53
2023/05/08 00:46:21;;;;;;;5.17;4.77;;;7.50;99.90;;;;;;5221117;28;20175;-55
2023/05/08 00:48:52;;;;;;;5.00;4.57;;;7.50;99.90;;;;;;5223359;28;20591;-54
2023/05/08 00:51:23;;;;;;;5.30;4.90;;;7.50;99.90;;;;;;5223342;28;20980;-55
2023/05/08 00:53:54;;;;;;;4.80;4.40;;;7.40;99.90;;;;;;5222269;28;20543;-53
2023/05/08 00:56:27;;;;;;;4.90;4.40;;;7.40;99.90;;;;;;5221835;28;20285;-53
2023/05/08 00:58:58;;;;;;;5.93;5.07;;;7.40;99.90;;;;;;5219809;28;20467;-57
2023/05/08 01:01:29;;;;;;;6.10;5.30;;;7.30;99.90;;;;;;5219955;28;20464;-54
2023/05/08 01:03:59;;;;;;;8.37;4.63;;;7.30;99.90;;;;;;5218724;28;20186;-54
2023/05/08 01:06:30;;;;;;;7.20;4.93;;;7.30;99.90;;;;;;5223698;28;20429;-56
2023/05/08 01:09:02;;;;;;;4.30;4.00;;;7.30;99.90;;;;;;5225143;28;20191;-53
2023/05/08 01:11:38;;;;;;;4.97;4.57;;;7.30;99.90;;;;;;5222151;28;20233;-57
2023/05/08 01:14:28;;;;;;;7.13;5.10;;;7.20;99.90;;;;;;5226590;28;20463;-52
2023/05/08 01:17:10;;;;;;;4.70;4.40;;;7.10;99.90;;;;;;5223636;28;20437;-54
2023/05/08 01:19:50;;;;;;;4.60;4.20;;;7.10;99.90;;;;;;5220712;28;20476;-54
2023/05/08 01:22:32;;;;;;;4.73;4.03;;;7.10;99.90;;;;;;5222923;28;20558;-54
2023/05/08 01:25:16;;;;;;;7.20;5.00;;;7.10;99.90;;;;;;5221065;28;20460;-52
2023/05/08 01:27:56;;;;;;;4.80;4.40;;;7.10;99.90;;;;;;5225401;28;20464;-53
2023/05/08 01:30:59;;;;;;;4.00;3.80;;;7.00;99.90;;;;;;5221619;28;20534;-55
2023/05/08 01:33:46;;;;;;;5.93;4.80;;;7.00;99.90;;;;;;5224572;28;20439;-52
2023/05/08 01:36:34;;;;;;;4.30;4.00;;;6.90;99.90;;;;;;5226345;28;20806;-53
2023/05/08 01:39:17;;;;;;;4.60;4.30;;;6.90;99.90;;;;;;5221798;28;20438;-52
2023/05/08 01:42:03;;;;;;;5.20;4.70;;;6.90;99.90;;;;;;5223566;28;20423;-53
2023/05/08 01:44:40;;;;;;;5.73;5.00;;;6.90;99.90;;;;;;5223627;28;20512;-53
2023/05/08 01:47:13;;;;;;;4.87;4.47;;;6.90;99.90;;;;;;5225440;28;20556;-52
2023/05/08 01:49:48;;;;;;;6.87;5.77;;;6.80;99.90;;;;;;5223527;28;20475;-52
2023/05/08 01:52:33;;;;;;;5.00;4.57;;;6.80;99.90;;;;;;5224288;28;20440;-54
2023/05/08 01:55:10;;;;;;;5.33;4.83;;;6.80;99.90;;;;;;5223687;28;20460;-53
2023/05/08 01:57:46;;;;;;;5.33;4.57;;;6.80;99.90;;;;;;5224222;28;20455;-54
2023/05/08 02:00:20;;;;;;;5.30;4.80;;;6.80;99.90;;;;;;5224963;28;20455;-54
2023/05/08 02:02:53;;;;;;;5.60;5.30;;;6.70;99.90;;;;;;5220721;28;20423;-54
2023/05/08 02:05:24;;;;;;;4.93;4.60;;;6.70;99.90;;;;;;5208258;28;20429;-53
2023/05/08 02:07:56;;;;;;;5.70;5.27;;;6.70;99.90;;;;;;5225784;28;21034;-53
2023/05/08 02:10:27;;;;;;;5.03;4.67;;;6.70;99.90;;;;;;5228317;28;20510;-53
2023/05/08 02:13:00;;;;;;;6.80;4.90;;;6.60;99.90;;;;;;5226637;28;20440;-53
2023/05/08 02:15:34;;;;;;;7.50;4.30;;;6.60;99.90;;;;;;5223925;28;20457;-53
2023/05/08 02:18:07;;;;;;;4.80;4.50;;;6.60;99.90;;;;;;5223581;28;20950;-54
2023/05/08 02:20:39;;;;;;;5.07;4.33;;;6.50;99.90;;;;;;5225364;28;20544;-52
2023/05/08 02:23:11;;;;;;;5.80;4.90;;;6.50;99.90;;;;;;5225995;28;20426;-53
2023/05/08 02:25:43;;;;;;;6.63;5.93;;;6.50;99.90;;;;;;5223015;28;20443;-53
2023/05/08 02:28:18;;;;;;;5.60;4.47;;;6.40;99.90;;;;;;5225377;28;20436;-54
2023/05/08 02:30:50;;;;;;;4.43;4.10;;;6.40;99.90;;;;;;5224165;28;20460;-52
2023/05/08 02:33:22;;;;;;;5.10;4.70;;;6.40;99.90;;;;;;5218744;28;20548;-54
2023/05/08 02:35:55;;;;;;;6.20;4.87;;;6.40;99.90;;;;;;5224287;28;20476;-53
2023/05/08 02:38:27;;;;;;;5.07;4.57;;;6.30;99.90;;;;;;5228428;28;20436;-53
2023/05/08 02:41:00;;;;;;;5.80;5.30;;;6.30;99.90;;;;;;5218055;28;20456;-53
2023/05/08 02:43:31;;;;;;;4.87;4.57;;;6.30;99.90;;;;;;5221981;28;20783;-53
2023/05/08 02:46:15;;;;;;;4.30;4.10;;;6.30;99.90;;;;;;5220176;28;20443;-53
2023/05/08 02:48:57;;;;;;;5.27;4.73;;;6.30;99.90;;;;;;5223174;28;20329;-52
2023/05/08 02:51:52;;;;;;;6.63;5.60;;;6.20;99.90;;;;;;5215698;28;20465;-54
2023/05/08 02:54:34;;;;;;;17.83;9.00;;;6.20;99.90;;;;;;5218659;28;20466;-53
2023/05/08 02:57:27;;;;;;;12.23;6.20;;;6.20;99.90;;;;;;5216501;28;21208;-55
2023/05/08 03:00:03;;;;;;;9.73;5.87;;;6.20;99.90;;;;;;5224029;28;20488;-54
2023/05/08 03:02:42;;;;;;;6.43;5.90;;;6.20;99.90;;;;;;5224494;28;21005;-53
2023/05/08 03:05:17;;;;;;;5.53;5.13;;;6.20;99.90;;;;;;5222280;28;21036;-55
2023/05/08 03:07:52;;;;;;;5.43;5.00;;;6.20;99.90;;;;;;5222573;28;20445;-53
2023/05/08 03:10:30;;;;;;;6.87;6.27;;;6.20;99.90;;;;;;5216426;28;20522;-53
2023/05/08 03:13:07;;;;;;;7.70;5.73;;;6.20;99.90;;;;;;5222176;28;20443;-54
2023/05/08 03:15:44;;;;;;;8.43;5.60;;;6.20;99.90;;;;;;5221932;28;20482;-53
2023/05/08 03:18:18;;;;;;;7.57;6.83;;;6.20;99.90;;;;;;5220244;28;20435;-54
2023/05/08 03:20:53;;;;;;;7.50;5.30;;;6.20;99.90;;;;;;5221674;28;20456;-53
2023/05/08 03:23:26;;;;;;;12.43;8.97;;;6.20;99.90;;;;;;5223147;28;20431;-55
2023/05/08 03:25:59;;;;;;;9.63;6.87;;;6.20;99.90;;;;;;5222232;28;20478;-55
2023/05/08 03:28:30;;;;;;;9.03;6.27;;;6.20;99.90;;;;;;5220411;28;20473;-53
2023/05/08 03:31:03;;;;;;;13.37;6.57;;;6.30;99.90;;;;;;5221418;28;20459;-55
2023/05/08 03:33:36;;;;;;;6.27;5.03;;;6.30;99.90;;;;;;5221643;28;20793;-53
2023/05/08 03:36:07;;;;;;;6.43;5.83;;;6.20;99.90;;;;;;5219322;28;20564;-53
2023/05/08 03:38:38;;;;;;;5.77;5.23;;;6.20;99.90;;;;;;5221068;28;20531;-54
2023/05/08 03:41:11;;;;;;;8.03;5.67;;;6.20;99.90;;;;;;5221060;28;20861;-55
2023/05/08 03:43:42;;;;;;;7.53;6.10;;;6.20;99.90;;;;;;5220359;28;20450;-54
2023/05/08 03:46:15;;;;;;;7.70;6.63;;;6.20;99.90;;;;;;5222762;28;20443;-53
2023/05/08 03:48:47;;;;;;;9.10;5.30;;;6.20;99.90;;;;;;5220487;28;20794;-53
2023/05/08 03:51:18;;;;;;;9.00;5.70;;;6.20;99.90;;;;;;5220983;28;20491;-55
2023/05/08 03:53:48;;;;;;;7.50;5.47;;;6.20;99.90;;;;;;5237371;28;20441;-54
2023/05/08 03:56:19;;;;;;;6.87;6.27;;;6.20;99.90;;;;;;5201948;28;20464;-54
2023/05/08 03:59:12;;;;;;;10.37;5.90;;;6.20;99.90;;;;;;5220828;28;20543;-53
2023/05/08 04:01:53;;;;;;;6.90;5.47;;;6.20;99.90;;;;;;5217426;28;20515;-54
2023/05/08 04:04:38;;;;;;;7.50;6.70;;;6.20;99.90;;;;;;5214295;28;20440;-54
2023/05/08 04:07:37;;;;;;;9.57;7.40;;;6.20;99.90;;;;;;5217542;28;20432;-53
2023/05/08 04:10:31;;;;;;;16.50;6.03;;;6.30;99.90;;;;;;5235942;28;20475;-53
2023/05/08 04:13:12;;;;;;;7.67;6.87;;;6.30;99.90;;;;;;5219845;28;20933;-54
2023/05/08 04:16:04;;;;;;;6.53;5.63;;;6.40;99.90;;;;;;5220389;28;20601;-53
2023/05/08 04:18:39;;;;;;;14.53;6.80;;;6.40;99.90;;;;;;5219688;28;20933;-53
2023/05/08 04:21:13;;;;;;;8.07;5.80;;;6.40;99.90;;;;;;5221731;28;20529;-52
2023/05/08 04:23:46;;;;;;;8.97;6.57;;;6.50;99.90;;;;;;5223576;28;20428;-54
2023/05/08 04:26:18;;;;;;;8.43;6.27;;;6.50;99.90;;;;;;5223213;28;20433;-54
2023/05/08 04:28:49;;;;;;;5.60;5.07;;;6.60;99.90;;;;;;5218139;28;20446;-52
2023/05/08 04:31:20;;;;;;;7.50;6.80;;;6.60;99.90;;;;;;5220351;28;20461;-53
2023/05/08 04:33:51;;;;;;;6.87;6.17;;;6.70;99.90;;;;;;5222305;28;20449;-55
2023/05/08 04:36:22;;;;;;;7.83;6.13;;;6.70;99.90;;;;;;5219688;28;21041;-54
2023/05/08 04:38:53;;;;;;;6.53;5.93;;;6.80;99.90;;;;;;5223786;28;20422;-54
2023/05/08 04:41:23;;;;;;;9.23;6.20;;;6.80;99.90;;;;;;5222218;28;20457;-54
2023/05/08 04:43:54;;;;;;;13.90;7.10;;;7.00;99.90;;;;;;5219926;28;20177;-53
2023/05/08 04:46:25;;;;;;;6.47;5.10;;;7.50;99.90;;;;;;5215691;28;20230;-54
2023/05/08 04:48:56;;;;;;;5.70;5.20;;;8.40;99.90;;;;;;5213711;28;20182;-54
2023/05/08 04:51:26;;;;;;;5.30;4.90;;;9.10;99.90;;;;;;5220436;28;20663;-54
2023/05/08 04:53:57;;;;;;;5.90;5.40;;;9.30;99.90;;;;;;5223060;28;20213;-55
2023/05/08 04:56:28;;;;;;;5.20;4.60;;;9.50;99.90;;;;;;5222587;28;20260;-55
2023/05/08 04:58:58;;;;;;;12.77;5.20;;;9.90;99.90;;;;;;5222551;28;20921;-54
2023/05/08 05:01:29;;;;;;;5.07;4.60;;;10.20;99.90;;;;;;5222387;28;20175;-53
2023/05/08 05:04:00;;;;;;;8.30;5.17;;;10.40;99.90;;;;;;5223172;28;20198;-54
2023/05/08 05:06:32;;;;;;;5.03;4.63;;;11.10;99.90;;;;;;5221579;28;20840;-54
2023/05/08 05:09:04;;;;;;;9.77;4.77;;;11.70;99.90;;;;;;5223066;28;20221;-55
2023/05/08 05:11:34;;;;;;;9.03;5.10;;;12.20;98.30;;;;;;5223128;28;20437;-54
2023/05/08 05:14:06;;;;;;;6.67;4.33;;;12.70;96.20;;;;;;5222829;28;20436;-54
2023/05/08 05:16:36;;;;;;;7.53;4.63;;;13.60;91.50;;;;;;5222719;28;20214;-55
2023/05/08 05:19:07;;;;;;;5.10;4.60;;;14.10;81.30;;;;;;5223501;28;20430;-55
2023/05/08 05:21:38;;;;;;;5.10;4.67;;;14.40;75.90;;;;;;5214642;28;20219;-55
2023/05/08 05:24:08;;;;;;;5.20;4.70;;;14.80;71.60;;;;;;5219079;28;20552;-54
2023/05/08 05:26:40;;;;;;;6.83;4.50;;;15.10;68.80;;;;;;5221420;28;20190;-55
2023/05/08 05:29:10;;;;;;;3.90;3.60;;;15.40;63.50;;;;;;5220121;28;20270;-54
2023/05/08 05:31:41;;;;;;;5.83;4.13;;;14.90;63.30;;;;;;5218734;28;20539;-54
2023/05/08 05:34:12;;;;;;;3.73;3.53;;;15.20;63.80;;;;;;5219630;28;20175;-54
2023/05/08 05:36:42;;;;;;;3.60;3.40;;;15.50;60.90;;;;;;5219996;28;20253;-54
2023/05/08 05:39:13;;;;;;;4.93;4.33;;;15.70;59.10;;;;;;5200325;28;20207;-54
2023/05/08 05:41:44;;;;;;;4.43;3.83;;;15.80;58.50;;;;;;5218827;28;20178;-55
2023/05/08 05:44:14;;;;;;;4.17;3.87;;;15.90;57.90;;;;;;5218744;28;20178;-55
2023/05/08 05:46:45;;;;;;;4.10;3.70;;;16.20;57.50;;;;;;5218165;28;20663;-54
2023/05/08 05:49:16;;;;;;;6.27;4.70;;;16.70;55.30;;;;;;5218918;28;20207;-54
2023/05/08 05:51:46;;;;;;;9.13;3.80;;;16.80;53.70;;;;;;5224067;28;20200;-56
2023/05/08 05:54:17;;;;;;;4.23;3.53;;;17.20;52.90;;;;;;5226861;28;20183;-54
2023/05/08 05:56:48;;;;;;;4.23;3.83;;;17.40;52.00;;;;;;5226499;28;20204;-55
2023/05/08 05:59:18;;;;;;;6.93;3.37;;;17.90;51.40;;;;;;5226401;28;20238;-54
2023/05/08 06:01:49;;;;;;;3.80;3.47;;;18.50;49.90;;;;;;5227437;28;20183;-56
2023/05/08 06:04:20;;;;;;;3.50;3.33;;;18.90;48.90;;;;;;5226084;28;20179;-56
2023/05/08 06:06:50;;;;;;;4.37;3.23;;;19.50;47.40;;;;;;5225795;28;20674;-55
2023/05/08 06:09:21;;;;;;;3.60;3.00;;;18.90;44.70;;;;;;5226175;28;20202;-59
2023/05/08 06:11:52;;;;;;;3.30;3.00;;;18.10;46.80;;;;;;5221809;28;20182;-54
2023/05/08 06:14:22;;;;;;;4.07;2.90;;;18.30;47.10;;;;;;5225199;28;20179;-56
2023/05/08 06:16:53;;;;;;;3.50;3.20;;;19.10;44.90;;;;;;5225493;28;20710;-54
2023/05/08 06:19:24;;;;;;;3.20;3.00;;;19.20;45.10;;;;;;5224176;28;20225;-50
2023/05/08 06:21:54;;;;;;;2.67;2.57;;;19.40;43.80;;;;;;5224394;28;20801;-52
2023/05/08 06:24:25;;;;;;;3.00;2.80;;;19.40;43.00;;;;;;5227373;28;20179;-44
2023/05/08 06:26:56;;;;;;;3.43;3.10;;;19.90;42.90;;;;;;5222897;28;20183;-44
2023/05/08 06:29:26;;;;;;;4.63;3.43;;;20.50;42.10;;;;;;5225125;28;20210;-51
2023/05/08 06:31:57;;;;;;;10.93;4.87;;;19.70;40.90;;;;;;5219750;28;20222;-48
2023/05/08 06:34:28;;;;;;;5.30;2.97;;;19.30;42.40;;;;;;5221340;28;20176;-50
2023/05/08 06:36:58;;;;;;;3.27;2.60;;;19.80;42.10;;;;;;5222453;28;20637;-52
2023/05/08 06:39:29;;;;;;;3.57;2.60;;;20.20;39.80;;;;;;5224335;28;20207;-50
2023/05/08 06:41:59;;;;;;;3.23;2.70;;;20.10;41.40;;;;;;5222430;28;20190;-51
2023/05/08 06:44:30;;;;;;;2.43;2.33;;;20.40;40.10;;;;;;5230784;28;20214;-50
2023/05/08 06:47:01;;;;;;;3.03;2.50;;;20.40;39.10;;;;;;5224987;28;20702;-51
2023/05/08 06:49:32;;;;;;;2.00;2.00;;;19.30;40.90;;;;;;5211830;28;20251;-50
2023/05/08 06:52:02;;;;;;;10.63;2.70;;;19.80;39.60;;;;;;5221081;28;20204;-49
2023/05/08 06:54:33;;;;;;;2.43;2.23;;;19.80;38.70;;;;;;5224495;28;20206;-48
2023/05/08 06:57:04;;;;;;;2.37;2.27;;;19.50;39.20;;;;;;5228578;28;20178;-50
2023/05/08 06:59:35;;;;;;;3.83;2.00;;;19.20;39.30;;;;;;5224406;28;20246;-50
2023/05/08 07:02:08;;;;;;;2.40;2.30;;;19.50;40.10;;;;;;5220988;28;20179;-50
2023/05/08 07:04:39;;;;;;;2.57;2.47;;;20.30;39.00;;;;;;5225813;28;20460;-49
2023/05/08 07:07:10;;;;;;;3.00;2.40;;;21.40;37.70;;;;;;5220939;28;20445;-49
2023/05/08 07:09:41;;;;;;;4.23;2.40;;;20.80;37.00;;;;;;5225527;28;20279;-48
2023/05/08 07:12:11;;;;;;;2.40;2.30;;;20.10;37.60;;;;;;5223027;28;20505;-49
2023/05/08 07:14:42;;;;;;;3.67;2.90;;;20.30;37.00;;;;;;5222637;28;20226;-49
2023/05/08 07:17:13;;;;;;;2.80;2.60;;;20.20;36.90;;;;;;5221873;28;20175;-50
2023/05/08 07:19:44;;;;;;;2.90;2.67;;;19.70;37.40;;;;;;5228619;28;20289;-51
2023/05/08 07:22:15;;;;;;;3.03;2.83;;;20.60;37.40;;;;;;5229264;28;20230;-51
2023/05/08 07:24:46;;;;;;;3.77;2.60;;;21.70;35.10;;;;;;5236149;28;20240;-50
2023/05/08 07:27:17;;;;;;;3.30;3.03;;;21.10;34.80;;;;;;5235969;28;20823;-50
2023/05/08 07:29:47;;;;;;;4.87;1.87;;;20.70;35.30;;;;;;5232958;28;20198;-51
2023/05/08 07:32:18;;;;;;;2.30;2.20;;;21.10;35.80;;;;;;5234192;28;20522;-50
2023/05/08 07:34:48;;;;;;;2.80;2.57;;;20.60;35.10;;;;;;5229384;28;20202;-51
2023/05/08 07:37:19;;;;;;;3.23;2.50;;;21.10;35.20;;;;;;5230979;28;20642;-50
2023/05/08 07:39:50;;;;;;;2.33;2.23;;;20.60;34.60;;;;;;5233538;28;20222;-52
2023/05/08 07:42:21;;;;;;;3.93;2.23;;;20.50;34.70;;;;;;5231534;28;20200;-56
2023/05/08 07:44:51;;;;;;;2.53;2.30;;;20.40;34.10;;;;;;5230613;28;20183;-50
2023/05/08 07:47:22;;;;;;;4.40;2.50;;;20.30;34.30;;;;;;5231577;28;20444;-52
2023/05/08 07:49:53;;;;;;;2.37;2.27;;;20.20;34.00;;;;;;5226105;28;20261;-50
2023/05/08 07:52:23;;;;;;;2.80;2.50;;;20.50;33.80;;;;;;5231839;28;20190;-48
2023/05/08 07:54:54;;;;;;;2.37;2.27;;;20.40;34.10;;;;;;5232968;28;20631;-51
2023/05/08 07:57:24;;;;;;;2.33;2.17;;;19.90;34.00;;;;;;5232786;28;20423;-50
2023/05/08 08:00:00;;;;;;;2.90;2.30;;;20.00;33.90;;;;;;5229112;28;20201;-50
2023/05/08 08:02:31;;;;;;;2.63;2.40;;;20.60;34.10;;;;;;5232303;28;20265;-51
2023/05/08 08:05:01;;;;;;;3.17;1.83;;;20.70;33.20;;;;;;5232419;28;20671;-50
2023/05/08 08:07:32;;;;;;;2.87;2.37;;;19.80;34.40;;;;;;5230817;28;20193;-51
2023/05/08 08:10:03;;;;;;;5.70;2.77;;;20.50;33.60;;;;;;5229158;28;20210;-49
2023/05/08 08:12:34;;;;;;;2.17;2.07;;;20.00;33.50;;;;;;5231249;28;20190;-50
2023/05/08 08:15:05;;;;;;;2.77;1.73;;;19.60;34.10;;;;;;5226919;28;20479;-50
2023/05/08 08:17:36;;;;;;;1.53;1.43;;;18.80;34.20;;;;;;5230792;28;20189;-49
2023/05/08 08:20:07;;;;;;;3.60;2.37;;;17.90;35.70;;;;;;5221650;28;20953;-50
2023/05/08 08:22:38;;;;;;;2.07;1.93;;;17.80;36.20;;;;;;5216046;28;20441;-50
2023/05/08 08:25:09;;;;;;;2.47;2.13;;;17.20;36.90;;;;;;5220055;28;20429;-50
2023/05/08 08:27:40;;;;;;;2.37;2.17;;;17.10;37.40;;;;;;5202174;28;20218;-50
2023/05/08 08:30:10;;;;;;;2.60;2.40;;;17.50;37.30;;;;;;5218712;28;20221;-49
2023/05/08 08:32:41;;;;;;;1.77;1.67;;;18.00;36.30;;;;;;5222493;28;20228;-49
2023/05/08 08:35:12;;;;;;;2.87;2.60;;;18.20;35.90;;;;;;5218012;28;20611;-50
2023/05/08 08:37:43;;;;;;;2.10;2.00;;;18.10;35.70;;;;;;5218694;28;20179;-51
2023/05/08 08:40:13;;;;;;;1.87;1.77;;;18.10;35.90;;;;;;5220123;28;20198;-51
2023/05/08 08:42:45;;;;;;;2.00;1.50;;;18.10;36.40;;;;;;5217918;28;20234;-50
2023/05/08 08:45:16;;;;;;;1.50;1.50;;;17.70;35.80;;;;;;5221223;28;20182;-50
2023/05/08 08:47:50;;;;;;;2.00;1.80;;;16.60;37.10;;;;;;5220890;28;20429;-50
2023/05/08 08:50:22;;;;;;;2.50;1.77;;;16.30;38.90;;;;;;5219550;28;20309;-49
2023/05/08 08:53:11;;;;;;;2.20;2.00;;;16.00;38.90;;;;;;5217508;28;20441;-51
2023/05/08 08:55:45;;;;;;;2.67;2.47;;;15.70;39.00;;;;;;5220292;28;20508;-50
2023/05/08 08:58:25;;;;;;;2.13;2.07;;;15.20;38.60;;;;;;5219472;28;20445;-50
2023/05/08 09:00:57;;;;;;;2.20;1.60;;;15.30;38.90;;;;;;5220928;28;20857;-50
2023/05/08 09:03:27;;;;;;;2.73;1.93;;;14.90;37.60;;;;;;5219807;28;20437;-51
2023/05/08 09:06:00;;;;;;;2.20;1.77;;;14.60;38.60;;;;;;5220903;28;20538;-50
2023/05/08 09:08:31;;;;;;;1.77;1.63;;;14.40;39.30;;;;;;5212571;28;20187;-51
2023/05/08 09:11:02;;;;;;;3.17;1.93;;;14.50;39.60;;;;;;5219172;28;20454;-50
2023/05/08 09:13:32;;;;;;;1.57;1.57;;;14.60;39.20;;;;;;5217472;28;20257;-50
2023/05/08 09:16:03;;;;;;;1.90;1.80;;;14.50;39.10;;;;;;5220576;28;20221;-49
2023/05/08 09:18:35;;;;;;;4.30;1.67;;;14.40;39.90;;;;;;5214427;28;20175;-49
2023/05/08 09:21:06;;;;;;;1.90;1.73;;;14.50;39.00;;;;;;5218185;28;20548;-51
2023/05/08 09:23:36;;;;;;;1.90;1.80;;;14.50;39.10;;;;;;5221608;28;20484;-52
2023/05/08 09:26:08;;;;;;;2.07;1.97;;;14.60;39.10;;;;;;5223272;28;20969;-49
2023/05/08 09:28:38;;;;;;;2.10;1.90;;;14.50;39.50;;;;;;5221139;28;20264;-49
2023/05/08 09:31:09;;;;;;;12.90;1.70;;;14.70;39.60;;;;;;5223923;28;20457;-51
2023/05/08 09:33:44;;;;;;;2.03;1.83;;;14.70;39.60;;;;;;5221224;28;20261;-51
2023/05/08 09:36:33;;;;;;;1.60;1.60;;;14.90;39.70;;;;;;5222016;28;20216;-48
2023/05/08 09:39:09;;;;;;;13.13;1.70;;;15.00;39.60;;;;;;5223338;28;20429;-50
2023/05/08 09:41:56;;;;;;;1.63;1.63;;;15.00;38.90;;;;;;5225841;28;20498;-49
2023/05/08 09:44:27;;;;;;;3.40;2.10;;;14.80;38.30;;;;;;5228196;28;20965;-52
2023/05/08 09:47:21;;;;;;;1.20;1.20;;;14.70;39.30;;;;;;5223359;28;20429;-52
2023/05/08 09:50:03;;;;;;;1.87;1.80;;;14.70;39.30;;;;;;5221141;28;20487;-50
2023/05/08 09:52:36;;;;;;;1.90;1.80;;;14.90;38.70;;;;;;5221034;28;20938;-50
2023/05/08 09:55:08;;;;;;;12.83;1.43;;;14.80;39.00;;;;;;5228382;28;20992;-50
2023/05/08 09:57:50;;;;;;;1.70;1.60;;;14.70;39.40;;;;;;5220735;28;20468;-51
2023/05/08 10:00:22;;;;;;;1.50;1.40;;;14.70;39.80;;;;;;5225108;28;21035;-50
2023/05/08 10:02:56;;;;;;;1.77;1.40;;;14.80;40.00;;;;;;5222146;28;20433;-51
2023/05/08 10:05:33;;;;;;;1.60;1.50;;;14.80;40.30;;;;;;5210156;28;20528;-50
2023/05/08 10:08:25;;;;;;;1.83;1.73;;;14.80;40.60;;;;;;5227054;28;20948;-50
2023/05/08 10:11:21;;;;;;;1.53;1.43;;;14.90;40.80;;;;;;5216077;28;20452;-51
2023/05/08 10:13:51;;;;;;;1.83;1.77;;;15.10;40.40;;;;;;5218636;28;20914;-50
2023/05/08 10:16:23;;;;;;;7.67;1.97;;;15.50;40.20;;;;;;5221645;28;20511;-50
2023/05/08 10:19:00;;;;;;;1.50;1.33;;;15.70;39.60;;;;;;5218813;28;20187;-51
2023/05/08 10:21:35;;;;;;;2.00;1.90;;;15.70;38.70;;;;;;5217480;28;20430;-51
2023/05/08 10:24:12;;;;;;;2.20;1.53;;;15.80;39.00;;;;;;5216286;28;20430;-52
2023/05/08 10:26:52;;;;;;;3.47;1.97;;;15.90;37.90;;;;;;5217189;28;20441;-51
2023/05/08 10:29:50;;;;;;;2.50;1.40;;;15.90;38.30;;;;;;5216580;28;20520;-49
2023/05/08 10:32:22;;;;;;;1.37;1.37;;;16.00;37.90;;;;;;5229093;28;20478;-51
2023/05/08 10:35:02;;;;;;;2.50;1.60;;;15.90;37.30;;;;;;5224952;28;20460;-50
2023/05/08 10:37:34;;;;;;;1.37;1.33;;;15.90;37.20;;;;;;5227403;28;20470;-48
2023/05/08 10:40:06;;;;;;;1.47;1.47;;;16.00;37.70;;;;;;5230834;28;20550;-51
2023/05/08 10:42:37;;;;;;;3.37;2.20;;;16.20;36.40;;;;;;5228660;28;20821;-50
2023/05/08 10:45:09;;;;;;;5.50;1.53;;;16.20;36.70;;;;;;5228472;28;20437;-51
2023/05/08 10:48:13;;;;;;;4.53;2.27;;;16.20;36.20;;;;;;5226665;28;20438;-51
2023/05/08 10:51:07;;;;;;;1.87;1.80;;;16.30;36.80;;;;;;5242319;28;20531;-52
2023/05/08 10:53:54;;;;;;;3.03;1.53;;;16.30;34.70;;;;;;5228578;28;20957;-46
2023/05/08 10:56:28;;;;;;;1.70;1.40;;;16.10;35.00;;;;;;5230066;28;20500;-50
2023/05/08 10:58:58;;;;;;;1.40;1.17;;;15.90;35.10;;;;;;5226100;28;20428;-52
2023/05/08 11:01:29;;;;;;;1.73;1.63;;;15.70;35.80;;;;;;5217459;28;20437;-49
2023/05/08 11:04:00;;;;;;;2.00;1.60;;;15.70;36.50;;;;;;5220860;28;20180;-49
2023/05/08 11:06:47;;;;;;;1.33;1.30;;;15.80;36.60;;;;;;5221565;28;20179;-48
2023/05/08 11:09:20;;;;;;;1.70;1.60;;;15.70;35.50;;;;;;5220933;28;20210;-50
2023/05/08 11:12:15;;;;;;;2.93;1.63;;;15.90;36.00;;;;;;5220493;28;20508;-48
2023/05/08 11:15:12;;;;;;;2.10;1.40;;;16.10;35.30;;;;;;5219863;28;20487;-50
2023/05/08 11:17:52;;;;;;;1.00;1.00;;;16.20;35.50;;;;;;5228522;28;20441;-48
2023/05/08 11:20:41;;;;;;;1.47;1.40;;;16.30;34.80;;;;;;5221684;28;20458;-50
2023/05/08 11:23:23;;;;;;;1.93;1.80;;;16.20;35.30;;;;;;5214475;28;20495;-51
2023/05/08 11:26:10;;;;;;;4.33;1.70;;;16.20;36.40;;;;;;5221687;28;20441;-50
2023/05/08 11:29:01;;;;;;;1.00;1.00;;;16.10;36.70;;;;;;5222137;28;20560;-49
2023/05/08 11:31:51;;;;;;;1.70;1.60;;;16.10;36.30;;;;;;5228595;28;20443;-49
2023/05/08 11:34:40;;;;;;;1.10;1.10;;;16.20;37.10;;;;;;5226532;28;20409;-50
2023/05/08 11:37:15;;;;;;;1.57;1.47;;;16.40;37.20;;;;;;5226296;28;20449;-51
2023/05/08 11:39:47;;;;;;;1.30;1.20;;;16.60;35.90;;;;;;5223094;28;20464;-50
2023/05/08 11:42:23;;;;;;;1.80;1.70;;;16.70;36.40;;;;;;5221586;28;20449;-50
2023/05/08 11:45:02;;;;;;;1.63;1.43;;;16.70;36.20;;;;;;5218055;28;20857;-49
2023/05/08 11:47:41;;;;;;;1.63;1.53;;;16.70;36.20;;;;;;5223102;28;20472;-49
2023/05/08 11:50:12;;;;;;;1.40;1.30;;;16.90;35.80;;;;;;5222675;28;20479;-49
2023/05/08 11:52:43;;;;;;;2.30;1.20;;;16.90;34.50;;;;;;5222997;28;20496;-49
2023/05/08 11:55:14;;;;;;;3.70;1.33;;;16.70;34.10;;;;;;5222629;28;20450;-52
2023/05/08 11:57:45;;;;;;;4.03;1.47;;;16.50;34.70;;;;;;5222358;28;20433;-50
2023/05/08 12:00:16;;;;;;;1.07;1.00;;;16.50;34.90;;;;;;5236698;28;20453;-49
2023/05/08 12:02:46;;;;;;;1.80;1.70;;;16.70;35.20;;;;;;5220262;28;20179;-49
2023/05/08 12:05:26;;;;;;;2.10;1.20;;;16.70;34.80;;;;;;5221382;28;20551;-51
2023/05/08 12:07:58;;;;;;;3.17;1.70;;;16.60;35.10;;;;;;5219008;28;20218;-48
2023/05/08 12:10:29;;;;;;;2.13;1.80;;;16.60;35.70;;;;;;5223109;28;20477;-51
2023/05/08 12:12:59;;;;;;;1.90;1.57;;;16.80;35.90;;;;;;5223710;28;20468;-52
2023/05/08 12:15:31;;;;;;;2.20;1.43;;;17.00;35.70;;;;;;5220675;28;20296;-50
2023/05/08 12:18:02;;;;;;;2.20;1.60;;;17.20;35.40;;;;;;5221134;28;20631;-50
2023/05/08 12:20:33;;;;;;;1.73;1.63;;;17.40;34.40;;;;;;5219015;28;20453;-52
2023/05/08 12:23:04;;;;;;;1.57;1.47;;;17.40;34.40;;;;;;5222669;28;20182;-52
2023/05/08 12:25:39;;;;;;;1.50;1.40;;;17.50;34.90;;;;;;5221488;28;20183;-50
2023/05/08 12:28:09;;;;;;;2.60;2.17;;;17.40;34.90;;;;;;5222401;28;20205;-50
2023/05/08 12:30:40;;;;;;;3.20;1.70;;;17.30;34.80;;;;;;5224641;28;20500;-52
2023/05/08 12:33:12;;;;;;;1.63;1.53;;;17.40;35.10;;;;;;5225463;28;20191;-51
2023/05/08 12:35:43;;;;;;;2.80;1.70;;;17.30;34.30;;;;;;5217592;28;20805;-51
2023/05/08 12:38:14;;;;;;;1.20;1.10;;;17.20;33.80;;;;;;5221831;28;20440;-52
2023/05/08 12:40:48;;;;;;;1.80;1.00;;;17.00;33.60;;;;;;5217193;28;20207;-52
2023/05/08 12:43:19;;;;;;;3.80;1.60;;;17.10;33.90;;;;;;5216758;28;20692;-51
2023/05/08 12:45:51;;;;;;;1.40;1.30;;;17.30;32.90;;;;;;5219475;28;20441;-52
2023/05/08 12:48:22;;;;;;;2.83;1.40;;;17.30;32.90;;;;;;5214183;28;20199;-51
2023/05/08 12:50:53;;;;;;;1.10;1.10;;;17.50;34.00;;;;;;5223045;28;20894;-51
2023/05/08 12:53:23;;;;;;;1.53;1.27;;;17.50;33.50;;;;;;5218805;28;20186;-49
2023/05/08 12:55:56;;;;;;;2.27;1.40;;;17.50;33.90;;;;;;5221561;28;20460;-51
2023/05/08 12:58:29;;;;;;;1.00;1.00;;;17.50;33.10;;;;;;5223461;28;20175;-50
2023/05/08 13:01:18;;;;;;;9.37;1.73;;;17.70;32.70;;;;;;5219753;28;20552;-53
2023/05/08 13:03:52;;;;;;;4.30;1.43;;;17.70;31.00;;;;;;5222760;28;20468;-50
2023/05/08 13:06:22;;;;;;;3.87;1.27;;;17.80;31.20;;;;;;5221060;28;20988;-53
2023/05/08 13:08:54;;;;;;;7.50;1.50;;;18.00;31.30;;;;;;5221601;28;20426;-55
2023/05/08 13:11:30;;;;;;;1.80;1.80;;;17.90;31.10;;;;;;5222421;28;20241;-51
2023/05/08 13:14:00;;;;;;;3.50;1.13;;;17.90;31.30;;;;;;5215384;28;20441;-51
2023/05/08 13:16:41;;;;;;;2.97;1.77;;;17.90;32.00;;;;;;5218948;28;20458;-51
2023/05/08 13:19:16;;;;;;;1.83;1.67;;;18.00;32.40;;;;;;5219068;28;20210;-51
2023/05/08 13:21:48;;;;;;;3.87;1.30;;;18.10;33.00;;;;;;5218089;28;20432;-51
2023/05/08 13:24:18;;;;;;;1.60;1.50;;;18.10;32.60;;;;;;5222111;28;20445;-52
2023/05/08 13:26:49;;;;;;;1.90;1.73;;;17.90;32.80;;;;;;5222562;28;20506;-50